createdAt,value
2018-08-30T00:01:02.924Z,55.27
2018-08-30T00:03:31.634Z,45.43
2018-08-30T00:06:00.259Z,60.23
2018-08-30T00:08:28.941Z,41.65
2018-08-30T00:10:57.645Z,37.17
2018-08-30T00:13:26.353Z,45.28
2018-08-30T00:15:55.127Z,40.65
2018-08-30T00:18:24.004Z,39.25
2018-08-30T00:20:52.594Z,43.85
2018-08-30T00:23:21.313Z,35.90
2018-08-30T00:25:49.961Z,28.92
2018-08-30T00:28:18.612Z,28.67
2018-08-30T00:30:47.265Z,27.73
2018-08-30T00:33:15.887Z,29.70
2018-08-30T00:35:44.504Z,23.27
2018-08-30T00:38:13.207Z,28.92
2018-08-30T00:40:41.792Z,24.18
2018-08-30T00:43:10.419Z,19.57
2018-08-30T00:45:39.125Z,21.42
2018-08-30T00:48:07.818Z,18.98
2018-08-30T00:50:36.510Z,15.13
2018-08-30T00:53:05.334Z,16.65
2018-08-30T00:55:34.025Z,13.08
2018-08-30T00:58:02.735Z,9.60
2018-08-30T01:00:31.357Z,9.68
2018-08-30T01:03:00.076Z,17.27
2018-08-30T01:05:28.787Z,10.85
2018-08-30T01:07:57.402Z,11.60
2018-08-30T01:10:26.105Z,10.70
2018-08-30T01:12:55.902Z,13.08
2018-08-30T01:15:26.057Z,10.30
2018-08-30T01:17:55.042Z,11.30
2018-08-30T01:20:24.043Z,11.45
2018-08-30T01:22:52.696Z,13.55
2018-08-30T01:25:21.415Z,15.35
2018-08-30T01:27:50.175Z,20.43
2018-08-30T01:30:18.872Z,18.00
2018-08-30T01:32:47.685Z,17.10
2018-08-30T01:35:16.308Z,17.20
2018-08-30T01:37:45.059Z,21.33
2018-08-30T01:40:13.691Z,16.05
2018-08-30T01:42:42.283Z,18.95
2018-08-30T01:45:17.506Z,20.00
2018-08-30T01:47:46.175Z,21.12
2018-08-30T01:50:14.816Z,23.77
2018-08-30T01:52:43.394Z,23.67
2018-08-30T01:55:12.026Z,28.52
2018-08-30T01:57:40.648Z,24.87
2018-08-30T02:00:09.267Z,22.95
2018-08-30T02:02:37.841Z,20.43
2018-08-30T02:05:06.550Z,20.82
2018-08-30T02:07:35.188Z,21.82
2018-08-30T02:10:03.899Z,22.73
2018-08-30T02:12:32.522Z,27.93
2018-08-30T02:15:01.163Z,23.05
2018-08-30T02:17:30.127Z,21.52
2018-08-30T02:19:58.907Z,26.37
2018-08-30T02:22:27.643Z,22.75
2018-08-30T02:24:56.497Z,28.00
2018-08-30T02:27:25.485Z,25.70
2018-08-30T02:29:54.221Z,25.85
2018-08-30T02:32:22.849Z,29.02
2018-08-30T02:34:51.482Z,28.40
2018-08-30T02:37:20.195Z,28.90
2018-08-30T02:39:48.800Z,32.57
2018-08-30T02:42:17.469Z,28.67
2018-08-30T02:44:46.147Z,33.20
2018-08-30T02:47:14.858Z,27.35
2018-08-30T02:49:43.439Z,27.53
2018-08-30T02:52:12.013Z,32.63
2018-08-30T02:54:40.708Z,36.80
2018-08-30T02:57:09.343Z,29.40
2018-08-30T02:59:37.951Z,26.73
2018-08-30T03:02:06.633Z,31.15
2018-08-30T03:04:35.273Z,33.13
2018-08-30T03:07:03.918Z,32.03
2018-08-30T03:09:32.542Z,34.10
2018-08-30T03:12:01.173Z,31.40
2018-08-30T03:14:29.883Z,27.85
2018-08-30T03:16:58.505Z,36.38
2018-08-30T03:19:27.161Z,33.77
2018-08-30T03:21:55.699Z,34.00
2018-08-30T03:24:24.292Z,37.13
2018-08-30T03:26:52.890Z,27.45
2018-08-30T03:29:21.505Z,31.68
2018-08-30T03:31:50.055Z,32.70
2018-08-30T03:34:18.683Z,26.80
2018-08-30T03:36:47.250Z,29.02
2018-08-30T03:39:15.903Z,30.83
2018-08-30T03:41:44.539Z,35.20
2018-08-30T03:44:13.197Z,28.52
2018-08-30T03:46:41.812Z,34.60
2018-08-30T03:49:10.493Z,31.55
2018-08-30T03:51:39.080Z,30.05
2018-08-30T03:54:07.735Z,31.87
2018-08-30T03:56:36.382Z,30.82
2018-08-30T03:59:05.013Z,29.32
2018-08-30T04:01:33.726Z,29.32
2018-08-30T04:04:02.258Z,29.77
2018-08-30T04:06:30.860Z,31.73
2018-08-30T04:08:59.437Z,33.00
2018-08-30T04:11:27.994Z,28.65
2018-08-30T04:13:56.669Z,30.05
2018-08-30T04:16:25.293Z,35.85
2018-08-30T04:18:59.001Z,38.85
2018-08-30T04:21:27.638Z,32.60
2018-08-30T04:23:56.262Z,28.15
2018-08-30T04:26:24.910Z,37.33
2018-08-30T04:28:53.603Z,35.23
2018-08-30T04:31:22.272Z,26.87
2018-08-30T04:33:51.007Z,29.53
2018-08-30T04:36:20.686Z,31.50
2018-08-30T04:38:49.272Z,31.07
2018-08-30T04:41:17.925Z,30.57
2018-08-30T04:43:47.214Z,30.35
2018-08-30T04:46:16.102Z,32.63
2018-08-30T04:48:44.753Z,30.50
2018-08-30T04:51:13.358Z,33.45
2018-08-30T04:53:42.407Z,26.85
2018-08-30T04:56:15.536Z,32.73
2018-08-30T04:58:44.179Z,31.93
2018-08-30T05:01:12.895Z,34.10
2018-08-30T05:03:41.594Z,38.63
2018-08-30T05:06:10.224Z,35.60
2018-08-30T05:08:39.125Z,28.00
2018-08-30T05:11:08.324Z,35.67
2018-08-30T05:13:36.922Z,33.30
2018-08-30T05:16:05.706Z,32.75
2018-08-30T05:18:34.543Z,36.20
2018-08-30T05:21:03.292Z,38.00
2018-08-30T05:23:31.943Z,29.55
2018-08-30T05:26:00.627Z,32.33
2018-08-30T05:28:29.392Z,33.57
2018-08-30T05:30:57.991Z,33.40
2018-08-30T05:33:26.618Z,28.50
2018-08-30T05:35:55.369Z,32.00
2018-08-30T05:38:30.266Z,28.30
2018-08-30T05:40:58.922Z,29.80
2018-08-30T05:43:27.721Z,27.83
2018-08-30T05:45:56.466Z,26.37
2018-08-30T05:48:25.157Z,24.80
2018-08-30T05:50:53.890Z,28.33
2018-08-30T05:53:22.466Z,26.47
2018-08-30T05:55:51.234Z,34.67
2018-08-30T05:58:20.005Z,27.57
2018-08-30T06:00:48.686Z,28.43
2018-08-30T06:03:17.367Z,28.53
2018-08-30T06:05:45.990Z,26.50
2018-08-30T06:08:14.722Z,29.20
2018-08-30T06:10:43.326Z,26.13
2018-08-30T06:13:12.708Z,28.30
2018-08-30T06:15:41.333Z,26.33
2018-08-30T06:18:10.150Z,22.17
2018-08-30T06:20:38.824Z,25.87
2018-08-30T06:23:07.419Z,24.27
2018-08-30T06:25:36.141Z,27.90
2018-08-30T06:28:04.819Z,29.13
2018-08-30T06:30:33.758Z,23.73
2018-08-30T06:33:02.358Z,25.50
2018-08-30T06:35:31.000Z,29.07
2018-08-30T06:37:59.663Z,24.50
2018-08-30T06:40:28.269Z,27.13
2018-08-30T06:42:56.930Z,16.87
2018-08-30T06:45:25.823Z,23.63
2018-08-30T06:47:54.528Z,24.20
2018-08-30T06:50:23.263Z,24.00
2018-08-30T06:52:51.961Z,19.07
2018-08-30T06:55:20.540Z,23.00
2018-08-30T06:57:49.771Z,23.80
2018-08-30T07:00:18.406Z,20.40
2018-08-30T07:02:47.254Z,20.23
2018-08-30T07:05:15.901Z,21.10
2018-08-30T07:07:44.506Z,16.97
2018-08-30T07:10:13.453Z,16.87
2018-08-30T07:12:42.170Z,20.00
2018-08-30T07:15:10.937Z,20.20
2018-08-30T07:17:39.567Z,25.10
2018-08-30T07:20:08.242Z,18.07
2018-08-30T07:22:37.029Z,21.60
2018-08-30T07:25:06.101Z,15.77
2018-08-30T07:27:34.739Z,14.83
2018-08-30T07:30:03.470Z,19.33
2018-08-30T07:32:32.082Z,15.37
2018-08-30T07:35:01.257Z,16.77
2018-08-30T07:37:29.737Z,17.00
2018-08-30T07:39:58.390Z,17.13
2018-08-30T07:42:27.001Z,18.73
2018-08-30T07:44:56.219Z,24.27
2018-08-30T07:47:25.742Z,13.03
2018-08-30T07:49:54.661Z,14.23
2018-08-30T07:52:23.311Z,16.97
2018-08-30T07:54:52.009Z,13.93
2018-08-30T07:57:20.723Z,11.30
2018-08-30T07:59:49.365Z,13.33
2018-08-30T08:02:18.008Z,14.50
2018-08-30T08:04:46.554Z,13.47
2018-08-30T08:07:15.353Z,9.70
2018-08-30T08:09:43.947Z,14.10
2018-08-30T08:12:12.609Z,15.67
2018-08-30T08:14:41.375Z,11.93
2018-08-30T08:17:10.079Z,15.10
2018-08-30T08:19:38.938Z,15.10
2018-08-30T08:22:07.792Z,22.40
2018-08-30T08:24:36.580Z,26.30
2018-08-30T08:27:05.297Z,19.97
2018-08-30T08:29:33.942Z,11.63
2018-08-30T08:32:02.883Z,12.07
2018-08-30T08:34:31.526Z,18.63
2018-08-30T08:37:00.894Z,14.00
2018-08-30T08:39:29.654Z,129.00
2018-08-30T08:41:58.296Z,168.23
2018-08-30T08:44:26.997Z,37.67
2018-08-30T08:46:55.541Z,14.73
2018-08-30T08:49:24.134Z,10.77
2018-08-30T08:51:52.760Z,17.33
2018-08-30T08:54:21.423Z,12.80
2018-08-30T08:56:50.190Z,29.80
2018-08-30T08:59:18.881Z,12.43
2018-08-30T09:01:47.484Z,11.93
2018-08-30T09:04:16.070Z,7.90
2018-08-30T09:06:44.816Z,5.40
2018-08-30T09:09:13.517Z,16.10
2018-08-30T09:11:42.999Z,10.33
2018-08-30T09:14:11.967Z,15.53
2018-08-30T09:16:41.345Z,8.30
2018-08-30T09:19:09.928Z,9.23
2018-08-30T09:21:38.555Z,7.27
2018-08-30T09:24:07.245Z,11.03
2018-08-30T09:26:35.961Z,10.20
2018-08-30T09:29:05.063Z,15.93
2018-08-30T09:31:33.760Z,12.73
2018-08-30T09:34:02.370Z,6.30
2018-08-30T09:36:31.045Z,18.63
2018-08-30T09:38:59.686Z,12.03
2018-08-30T09:41:28.441Z,13.17
2018-08-30T09:43:57.067Z,10.40
2018-08-30T09:46:25.778Z,9.30
2018-08-30T09:48:54.522Z,9.40
2018-08-30T09:51:23.133Z,11.23
2018-08-30T09:53:51.862Z,33.07
2018-08-30T09:56:20.522Z,15.83
2018-08-30T09:58:49.215Z,13.00
2018-08-30T10:01:23.154Z,10.77
2018-08-30T10:03:51.862Z,10.80
2018-08-30T10:06:20.454Z,7.13
2018-08-30T10:08:49.215Z,9.00
2018-08-30T10:11:17.915Z,11.43
2018-08-30T10:13:46.638Z,8.80
2018-08-30T10:16:15.339Z,9.60
2018-08-30T10:18:43.994Z,7.00
2018-08-30T10:21:12.735Z,6.87
2018-08-30T10:23:41.332Z,5.73
2018-08-30T10:26:10.026Z,11.63
2018-08-30T10:28:38.732Z,10.10
2018-08-30T10:31:07.476Z,11.80
2018-08-30T10:33:36.286Z,12.87
2018-08-30T10:36:05.054Z,13.93
2018-08-30T10:38:33.727Z,14.20
2018-08-30T10:41:02.377Z,6.90
2018-08-30T10:43:30.988Z,6.73
2018-08-30T10:45:59.537Z,13.33
2018-08-30T10:48:28.222Z,6.07
2018-08-30T10:50:57.573Z,11.03
2018-08-30T10:53:26.925Z,5.83
2018-08-30T10:55:55.649Z,13.47
2018-08-30T10:58:25.069Z,15.27
2018-08-30T11:00:53.718Z,6.03
2018-08-30T11:03:22.745Z,13.03
2018-08-30T11:05:51.457Z,9.93
2018-08-30T11:08:20.088Z,8.50
2018-08-30T11:10:48.908Z,15.20
2018-08-30T11:13:18.412Z,15.53
2018-08-30T11:15:47.402Z,5.93
2018-08-30T11:18:16.058Z,5.43
2018-08-30T11:20:44.863Z,15.70
2018-08-30T11:23:13.823Z,13.60
2018-08-30T11:25:42.507Z,12.53
2018-08-30T11:28:11.299Z,8.20
2018-08-30T11:30:39.904Z,5.93
2018-08-30T11:33:08.628Z,4.93
2018-08-30T11:35:37.973Z,10.60
2018-08-30T11:38:06.606Z,7.67
2018-08-30T11:40:35.252Z,6.43
2018-08-30T11:43:03.873Z,7.60
2018-08-30T11:45:32.500Z,18.20
2018-08-30T11:48:01.221Z,4.93
2018-08-30T11:50:29.946Z,6.30
2018-08-30T11:52:58.588Z,9.23
2018-08-30T11:55:27.178Z,8.10
2018-08-30T11:57:55.780Z,13.37
2018-08-30T12:00:24.451Z,4.90
2018-08-30T12:02:53.126Z,13.00
2018-08-30T12:05:21.935Z,16.63
2018-08-30T12:07:50.678Z,21.83
2018-08-30T12:10:19.333Z,27.20
2018-08-30T12:12:48.208Z,22.43
2018-08-30T12:15:16.922Z,8.67
2018-08-30T12:17:45.523Z,8.53
2018-08-30T12:20:14.206Z,10.70
2018-08-30T12:22:42.939Z,9.90
2018-08-30T12:25:11.555Z,5.37
2018-08-30T12:27:40.138Z,6.70
2018-08-30T12:30:08.898Z,8.03
2018-08-30T12:32:37.693Z,8.60
2018-08-30T12:35:06.643Z,6.40
2018-08-30T12:37:35.499Z,9.73
2018-08-30T12:40:04.467Z,21.27
2018-08-30T12:42:33.079Z,15.83
2018-08-30T12:45:01.752Z,4.70
2018-08-30T12:47:30.432Z,4.63
2018-08-30T12:49:59.111Z,4.57
2018-08-30T12:52:27.821Z,14.30
2018-08-30T12:54:56.581Z,30.57
2018-08-30T12:57:25.312Z,12.20
2018-08-30T12:59:54.095Z,12.63
2018-08-30T13:02:22.838Z,4.73
2018-08-30T13:04:51.811Z,14.97
2018-08-30T13:07:23.331Z,7.97
2018-08-30T13:09:52.820Z,9.73
2018-08-30T13:12:21.424Z,6.20
2018-08-30T13:14:50.225Z,7.27
2018-08-30T13:17:19.108Z,5.80
2018-08-30T13:19:48.043Z,5.20
2018-08-30T13:22:16.932Z,3.47
2018-08-30T13:24:45.572Z,5.23
2018-08-30T13:27:14.115Z,34.87
2018-08-30T13:29:42.859Z,5.70
2018-08-30T13:32:11.554Z,6.10
2018-08-30T13:34:40.320Z,7.63
2018-08-30T13:37:09.228Z,8.40
2018-08-30T13:39:37.694Z,9.90
2018-08-30T13:42:06.490Z,5.67
2018-08-30T13:44:35.218Z,5.97
2018-08-30T13:47:04.268Z,6.60
2018-08-30T13:49:32.857Z,13.27
2018-08-30T13:52:01.820Z,8.57
2018-08-30T13:54:30.513Z,8.53
2018-08-30T13:56:59.328Z,7.57
2018-08-30T13:59:27.982Z,7.13
2018-08-30T14:01:56.787Z,5.37
2018-08-30T14:04:25.510Z,7.93
2018-08-30T14:06:54.299Z,5.13
2018-08-30T14:09:22.906Z,4.23
2018-08-30T14:11:51.874Z,7.30
2018-08-30T14:14:20.451Z,6.50
2018-08-30T14:16:48.960Z,6.77
2018-08-30T14:19:17.806Z,7.70
2018-08-30T14:21:46.338Z,8.03
2018-08-30T14:24:14.946Z,5.17
2018-08-30T14:26:43.762Z,8.63
2018-08-30T14:29:12.635Z,12.00
2018-08-30T14:31:41.245Z,5.67
2018-08-30T14:34:10.006Z,7.13
2018-08-30T14:36:38.822Z,8.07
2018-08-30T14:39:09.694Z,14.70
2018-08-30T14:41:39.017Z,5.90
2018-08-30T14:44:07.687Z,4.73
2018-08-30T14:46:36.320Z,4.80
2018-08-30T14:49:05.584Z,7.20
2018-08-30T14:51:34.491Z,9.63
2018-08-30T14:54:03.312Z,8.17
2018-08-30T14:56:31.873Z,5.80
2018-08-30T14:59:00.759Z,12.83
2018-08-30T15:01:29.376Z,5.80
2018-08-30T15:03:58.057Z,7.07
2018-08-30T15:06:26.815Z,6.53
2018-08-30T15:08:55.542Z,4.63
2018-08-30T15:11:25.099Z,3.60
2018-08-30T15:13:53.906Z,5.33
2018-08-30T15:16:22.638Z,6.90
2018-08-30T15:18:51.448Z,4.57
2018-08-30T15:21:20.284Z,7.40
2018-08-30T15:23:48.991Z,6.93
2018-08-30T15:26:17.613Z,5.27
2018-08-30T15:28:46.404Z,6.77
2018-08-30T15:31:15.258Z,6.30
2018-08-30T15:33:44.055Z,9.30
2018-08-30T15:36:12.757Z,6.57
2018-08-30T15:38:41.704Z,4.47
2018-08-30T15:41:10.261Z,8.73
2018-08-30T15:43:39.377Z,3.20
2018-08-30T15:46:08.016Z,15.67
2018-08-30T15:48:36.814Z,5.53
2018-08-30T15:51:05.641Z,11.50
2018-08-30T15:53:34.278Z,6.47
2018-08-30T15:56:02.845Z,7.83
2018-08-30T15:58:31.474Z,5.40
2018-08-30T16:01:00.379Z,5.73
2018-08-30T16:03:29.125Z,9.97
2018-08-30T16:05:57.770Z,12.00
2018-08-30T16:08:26.522Z,18.20
2018-08-30T16:10:55.944Z,6.73
2018-08-30T16:13:24.701Z,6.57
2018-08-30T16:15:53.553Z,8.23
2018-08-30T16:18:22.129Z,8.67
2018-08-30T16:20:50.882Z,6.07
2018-08-30T16:23:26.410Z,6.70
2018-08-30T16:25:55.166Z,6.60
2018-08-30T16:28:34.798Z,10.87
2018-08-30T16:31:03.568Z,5.27
2018-08-30T16:33:32.252Z,4.47
2018-08-30T16:36:01.035Z,3.23
2018-08-30T16:38:29.761Z,7.57
2018-08-30T16:40:58.745Z,9.50
2018-08-30T16:43:27.441Z,5.77
2018-08-30T16:45:56.272Z,8.90
2018-08-30T16:48:25.466Z,4.03
2018-08-30T16:50:54.149Z,6.53
2018-08-30T16:53:22.826Z,6.27
2018-08-30T16:55:51.473Z,4.03
2018-08-30T16:58:20.198Z,9.90
2018-08-30T17:00:48.954Z,7.50
2018-08-30T17:03:17.834Z,11.23
2018-08-30T17:05:46.545Z,8.33
2018-08-30T17:08:15.240Z,6.40
2018-08-30T17:10:44.127Z,4.83
2018-08-30T17:13:12.779Z,5.53
2018-08-30T17:15:41.388Z,10.37
2018-08-30T17:18:10.337Z,4.60
2018-08-30T17:20:41.884Z,9.23
2018-08-30T17:23:10.880Z,9.00
2018-08-30T17:25:39.836Z,5.53
2018-08-30T17:28:08.521Z,9.93
2018-08-30T17:30:38.172Z,14.77
2018-08-30T17:33:06.974Z,6.20
2018-08-30T17:35:35.644Z,15.93
2018-08-30T17:38:04.617Z,14.67
2018-08-30T17:40:33.294Z,10.20
2018-08-30T17:43:02.114Z,6.30
2018-08-30T17:45:30.923Z,13.37
2018-08-30T17:47:59.647Z,10.07
2018-08-30T17:50:28.415Z,3.80
2018-08-30T17:52:57.375Z,8.20
2018-08-30T17:55:26.139Z,11.07
2018-08-30T17:57:54.911Z,12.33
2018-08-30T18:00:23.653Z,4.97
2018-08-30T18:02:52.351Z,9.50
2018-08-30T18:05:21.129Z,4.53
2018-08-30T18:07:49.868Z,8.30
2018-08-30T18:10:18.545Z,9.93
2018-08-30T18:12:47.176Z,5.33
2018-08-30T18:15:16.591Z,4.50
2018-08-30T18:17:45.996Z,7.97
2018-08-30T18:20:14.823Z,8.20
2018-08-30T18:22:43.552Z,5.50
2018-08-30T18:25:12.547Z,9.30
2018-08-30T18:27:41.273Z,8.07
2018-08-30T18:30:11.185Z,3.90
2018-08-30T18:32:39.941Z,8.63
2018-08-30T18:35:10.202Z,6.73
2018-08-30T18:37:39.398Z,12.57
2018-08-30T18:40:09.059Z,10.40
2018-08-30T18:42:37.910Z,5.77
2018-08-30T18:45:06.672Z,10.53
2018-08-30T18:47:35.854Z,8.30
2018-08-30T18:50:04.862Z,9.87
2018-08-30T18:52:33.743Z,5.40
2018-08-30T18:55:02.585Z,9.10
2018-08-30T18:57:31.196Z,9.17
2018-08-30T19:00:00.191Z,8.00
2018-08-30T19:02:28.961Z,13.20
2018-08-30T19:04:57.678Z,5.03
2018-08-30T19:07:27.167Z,7.97
2018-08-30T19:09:56.162Z,6.53
2018-08-30T19:12:24.884Z,3.83
2018-08-30T19:14:53.612Z,7.70
2018-08-30T19:17:27.477Z,9.43
2018-08-30T19:19:56.211Z,7.00
2018-08-30T19:22:24.882Z,8.60
2018-08-30T19:24:58.762Z,13.73
2018-08-30T19:27:27.532Z,5.93
2018-08-30T19:30:01.758Z,9.30
2018-08-30T19:32:30.581Z,18.73
2018-08-30T19:35:03.471Z,19.23
2018-08-30T19:37:32.222Z,5.60
2018-08-30T19:40:00.843Z,6.00
2018-08-30T19:42:29.551Z,7.53
2018-08-30T19:44:58.300Z,6.20
2018-08-30T19:47:27.001Z,9.77
2018-08-30T19:50:02.140Z,9.83
2018-08-30T19:52:30.853Z,11.40
2018-08-30T19:55:01.286Z,4.77
2018-08-30T19:57:29.964Z,8.30
2018-08-30T19:59:58.621Z,12.83
2018-08-30T20:02:27.618Z,8.57
2018-08-30T20:04:58.617Z,8.20
2018-08-30T20:07:27.179Z,9.37
2018-08-30T20:09:58.637Z,7.63
2018-08-30T20:12:27.462Z,11.37
2018-08-30T20:14:56.083Z,11.50
2018-08-30T20:17:24.999Z,8.80
2018-08-30T20:19:56.993Z,7.40
2018-08-30T20:22:26.201Z,6.70
2018-08-30T20:24:54.826Z,7.67
2018-08-30T20:27:23.564Z,7.10
2018-08-30T20:29:52.590Z,11.83
2018-08-30T20:32:21.165Z,7.57
2018-08-30T20:34:49.783Z,10.57
2018-08-30T20:37:18.520Z,7.07
2018-08-30T20:39:47.156Z,4.70
2018-08-30T20:42:16.647Z,5.40
2018-08-30T20:44:45.392Z,7.00
2018-08-30T20:47:14.149Z,9.73
2018-08-30T20:49:43.007Z,6.43
2018-08-30T20:52:11.857Z,11.45
2018-08-30T20:54:40.494Z,6.40
2018-08-30T20:57:09.216Z,10.50
2018-08-30T20:59:37.940Z,5.47
2018-08-30T21:02:06.588Z,5.33
2018-08-30T21:04:35.240Z,9.87
2018-08-30T21:07:05.118Z,6.33
2018-08-30T21:09:33.788Z,5.83
2018-08-30T21:12:02.557Z,10.63
2018-08-30T21:14:31.275Z,5.80
2018-08-30T21:16:59.875Z,6.77
2018-08-30T21:19:28.549Z,9.43
2018-08-30T21:21:57.103Z,12.47
2018-08-30T21:24:25.732Z,5.53
2018-08-30T21:26:54.419Z,7.90
2018-08-30T21:29:23.003Z,11.73
2018-08-30T21:31:51.590Z,6.13
2018-08-30T21:34:20.189Z,6.80
2018-08-30T21:36:48.767Z,7.70
2018-08-30T21:39:17.385Z,5.13
2018-08-30T21:41:46.029Z,6.60
2018-08-30T21:44:14.648Z,5.80
2018-08-30T21:46:43.338Z,8.03
2018-08-30T21:49:12.002Z,9.43
2018-08-30T21:51:40.707Z,7.15
2018-08-30T21:54:09.562Z,6.83
2018-08-30T21:56:38.183Z,13.37
2018-08-30T21:59:06.983Z,3.67
2018-08-30T22:01:35.748Z,13.73
2018-08-30T22:04:04.819Z,6.10
2018-08-30T22:06:33.488Z,9.80
2018-08-30T22:09:02.303Z,11.07
2018-08-30T22:11:30.952Z,6.87
2018-08-30T22:13:59.710Z,8.57
2018-08-30T22:16:28.260Z,6.07
2018-08-30T22:18:56.946Z,7.70
2018-08-30T22:21:25.544Z,11.03
2018-08-30T22:23:54.140Z,7.20
2018-08-30T22:26:22.784Z,4.10
2018-08-30T22:28:51.353Z,6.20
2018-08-30T22:31:19.998Z,9.83
2018-08-30T22:33:48.578Z,7.23
2018-08-30T22:36:17.365Z,6.97
2018-08-30T22:38:45.896Z,10.67
2018-08-30T22:41:14.563Z,8.30
2018-08-30T22:43:43.145Z,6.10
2018-08-30T22:46:11.798Z,5.33
2018-08-30T22:48:40.433Z,8.73
2018-08-30T22:51:09.045Z,8.87
2018-08-30T22:53:37.682Z,8.70
2018-08-30T22:56:06.338Z,5.72
2018-08-30T22:58:34.879Z,11.13
2018-08-30T23:01:03.493Z,17.80
2018-08-30T23:03:32.110Z,5.05
2018-08-30T23:06:00.758Z,12.55
2018-08-30T23:08:30.319Z,9.58
2018-08-30T23:10:58.919Z,6.90
2018-08-30T23:13:27.576Z,7.90
2018-08-30T23:15:56.132Z,5.80
2018-08-30T23:18:24.854Z,8.35
2018-08-30T23:20:53.548Z,8.48
2018-08-30T23:23:22.158Z,5.65
2018-08-30T23:25:50.761Z,4.70
2018-08-30T23:28:19.449Z,4.92
2018-08-30T23:30:48.086Z,6.17
2018-08-30T23:33:16.779Z,11.10
2018-08-30T23:35:45.421Z,5.78
2018-08-30T23:38:14.074Z,5.08
2018-08-30T23:40:42.773Z,12.65
2018-08-30T23:43:11.436Z,4.85
2018-08-30T23:45:40.080Z,7.47
2018-08-30T23:48:08.765Z,6.62
2018-08-30T23:50:37.357Z,10.15
2018-08-30T23:53:06.137Z,9.13
2018-08-30T23:55:34.863Z,5.03
2018-08-30T23:58:14.577Z,10.70
